Time;durP1;ratioP1;P1;durP2;ratioP2;P2;SDS_P1;SDS_P2;PMS_P1;PMS_P2;Temp;Humidity;BMP_temperature;BMP_pressure;BME280_temperature;BME280_humidity;BME280_pressure;Samples;Min_cycle;Max_cycle;Signal;HPM_P1;HPM_P2
2024/01/29 00:01:23;;;;;;;381.30;357.73;;;4.40;99.90;;;;;;4985890;28;20042;-77
2024/01/29 00:03:49;;;;;;;379.92;356.92;;;4.40;99.90;;;;;;4986425;28;20050;-78
2024/01/29 00:06:15;;;;;;;425.55;398.58;;;4.40;99.90;;;;;;4984789;28;20047;-78
2024/01/29 00:08:41;;;;;;;380.70;357.05;;;4.60;99.90;;;;;;4985016;28;20054;-78
2024/01/29 00:11:07;;;;;;;421.63;393.98;;;4.40;99.90;;;;;;4987002;28;20046;-77
2024/01/29 00:13:33;;;;;;;381.85;358.25;;;4.60;99.90;;;;;;4983333;28;20493;-78
2024/01/29 00:15:59;;;;;;;356.13;334.52;;;4.40;99.90;;;;;;4986707;28;20038;-78
2024/01/29 00:18:25;;;;;;;388.52;364.42;;;4.30;99.90;;;;;;4969848;28;20447;-77
2024/01/29 00:20:51;;;;;;;346.45;325.52;;;4.30;99.90;;;;;;4985965;28;20113;-77
2024/01/29 00:23:17;;;;;;;379.35;356.02;;;4.70;99.90;;;;;;4985579;28;20050;-78
2024/01/29 00:25:43;;;;;;;377.27;353.65;;;4.30;99.90;;;;;;4998437;28;20073;-78
2024/01/29 00:28:08;;;;;;;425.33;398.25;;;4.20;99.90;;;;;;4991686;28;20386;-78
2024/01/29 00:30:34;;;;;;;386.52;362.55;;;4.20;99.90;;;;;;5003329;28;20051;-77
2024/01/29 00:33:00;;;;;;;389.63;365.08;;;4.20;99.90;;;;;;5036122;28;20543;-78
2024/01/29 00:35:26;;;;;;;402.95;377.63;;;4.20;99.90;;;;;;5002127;28;20054;-77
2024/01/29 00:37:51;;;;;;;378.33;354.90;;;4.20;99.90;;;;;;5003221;28;20413;-77
2024/01/29 00:40:17;;;;;;;390.98;366.40;;;4.20;99.90;;;;;;5003348;28;20457;-77
2024/01/29 00:42:43;;;;;;;388.92;364.80;;;4.20;99.90;;;;;;4983288;28;20125;-77
2024/01/29 00:45:09;;;;;;;378.55;355.10;;;4.20;99.90;;;;;;4984162;28;20137;-77
2024/01/29 00:47:35;;;;;;;429.23;401.70;;;4.20;99.90;;;;;;4985052;28;20482;-77
2024/01/29 00:50:01;;;;;;;426.75;399.75;;;4.10;99.90;;;;;;4977459;28;20430;-77
2024/01/29 00:52:28;;;;;;;465.38;435.27;;;4.20;99.90;;;;;;5016510;28;20382;-77
2024/01/29 00:54:54;;;;;;;391.38;367.05;;;4.20;99.90;;;;;;4985088;28;20054;-78
2024/01/29 00:57:20;;;;;;;446.00;416.92;;;4.20;99.90;;;;;;4989373;28;20447;-77
2024/01/29 00:59:46;;;;;;;397.55;372.55;;;4.20;99.90;;;;;;4990704;28;20046;-77
2024/01/29 01:02:12;;;;;;;382.98;359.05;;;4.20;99.90;;;;;;5003261;28;20099;-78
2024/01/29 01:04:38;;;;;;;384.60;360.90;;;4.20;99.90;;;;;;4986267;28;20046;-77
2024/01/29 01:07:04;;;;;;;415.58;389.45;;;4.20;99.90;;;;;;4984473;28;20051;-77
2024/01/29 01:09:29;;;;;;;394.17;369.48;;;4.20;99.90;;;;;;5032960;28;20057;-77
2024/01/29 01:11:55;;;;;;;388.55;364.60;;;4.50;99.90;;;;;;5002605;28;20048;-77
2024/01/29 01:14:21;;;;;;;412.13;386.15;;;4.30;99.90;;;;;;4991796;28;20046;-77
2024/01/29 01:16:46;;;;;;;417.45;391.05;;;4.50;99.90;;;;;;5002724;28;20122;-77
2024/01/29 01:19:12;;;;;;;424.35;397.92;;;4.30;99.90;;;;;;5000927;28;20046;-77
2024/01/29 01:21:38;;;;;;;399.52;374.77;;;4.10;99.90;;;;;;4983821;28;20430;-77
2024/01/29 01:24:04;;;;;;;403.15;378.00;;;4.10;99.90;;;;;;4983539;28;20042;-77
2024/01/29 01:26:29;;;;;;;408.63;383.08;;;4.10;99.90;;;;;;4993991;28;20053;-77
2024/01/29 01:28:55;;;;;;;423.38;396.65;;;4.10;99.90;;;;;;5001800;28;20037;-78
2024/01/29 01:31:21;;;;;;;397.13;372.23;;;4.20;99.90;;;;;;5003159;28;20144;-77
2024/01/29 01:33:46;;;;;;;414.33;388.35;;;4.10;99.90;;;;;;5002812;28;20458;-77
2024/01/29 01:36:12;;;;;;;417.88;391.23;;;4.10;99.90;;;;;;5003967;28;20042;-78
2024/01/29 01:38:38;;;;;;;390.85;366.70;;;4.30;99.90;;;;;;5000761;28;20085;-78
2024/01/29 01:41:04;;;;;;;442.02;413.80;;;4.00;99.90;;;;;;5002484;28;20042;-77
2024/01/29 01:43:29;;;;;;;436.35;408.08;;;4.00;99.90;;;;;;5033836;28;20074;-77
2024/01/29 01:46:16;;;;;;;396.67;372.23;;;4.00;99.90;;;;;;5003157;28;20554;-77
2024/01/29 01:48:41;;;;;;;460.23;430.48;;;4.00;99.90;;;;;;5003063;28;20459;-77
2024/01/29 01:51:08;;;;;;;508.00;473.30;;;3.90;99.90;;;;;;4998331;28;20045;-77
2024/01/29 01:53:36;;;;;;;436.73;408.85;;;3.90;99.90;;;;;;5000816;28;20042;-77
2024/01/29 01:56:03;;;;;;;472.02;441.35;;;3.90;99.90;;;;;;5001675;28;20046;-77
2024/01/29 01:58:32;;;;;;;415.92;389.83;;;3.90;99.90;;;;;;4972029;28;20414;-78
2024/01/29 02:00:58;;;;;;;408.95;383.38;;;3.80;99.90;;;;;;4979448;28;20045;-78
2024/01/29 02:03:26;;;;;;;468.50;437.70;;;3.80;99.90;;;;;;4997245;28;20095;-78
2024/01/29 02:05:52;;;;;;;418.65;391.52;;;3.80;99.90;;;;;;4982563;28;20207;-77
2024/01/29 02:08:18;;;;;;;487.35;455.02;;;3.80;99.90;;;;;;5016558;28;20482;-78
2024/01/29 02:10:45;;;;;;;498.25;465.63;;;4.10;99.90;;;;;;4985241;28;20043;-77
2024/01/29 02:13:13;;;;;;;495.83;462.42;;;3.90;99.90;;;;;;4982113;28;20042;-77
2024/01/29 02:15:39;;;;;;;549.63;511.33;;;3.70;99.90;;;;;;4982644;28;20050;-77
2024/01/29 02:18:05;;;;;;;459.27;429.90;;;4.30;99.90;;;;;;4984778;28;20054;-77
2024/01/29 02:20:31;;;;;;;426.45;399.33;;;3.70;99.90;;;;;;4997642;28;20038;-78
2024/01/29 02:22:57;;;;;;;535.35;498.73;;;3.70;99.90;;;;;;5002156;28;20519;-78
2024/01/29 02:25:23;;;;;;;519.50;483.75;;;3.70;99.90;;;;;;5001749;28;20050;-78
2024/01/29 02:27:48;;;;;;;423.08;396.30;;;3.70;99.90;;;;;;5001684;28;20457;-77
2024/01/29 02:30:14;;;;;;;447.75;418.92;;;4.00;99.90;;;;;;5002815;28;20513;-77
2024/01/29 02:32:40;;;;;;;475.40;444.50;;;3.70;99.90;;;;;;5003086;28;20053;-78
2024/01/29 02:35:06;;;;;;;518.60;483.35;;;3.70;99.90;;;;;;5000758;28;20103;-77
2024/01/29 02:37:33;;;;;;;473.05;441.60;;;3.70;99.90;;;;;;5006200;28;20121;-78
2024/01/29 02:39:59;;;;;;;497.20;464.38;;;3.80;99.90;;;;;;5004232;28;20068;-78
2024/01/29 02:42:24;;;;;;;453.27;424.20;;;3.80;99.90;;;;;;5005124;28;20034;-78
2024/01/29 02:44:50;;;;;;;564.20;524.30;;;3.80;99.90;;;;;;5003329;28;20098;-77
2024/01/29 02:47:16;;;;;;;467.40;436.35;;;3.80;99.90;;;;;;5004478;28;20046;-77
2024/01/29 02:49:43;;;;;;;519.53;484.63;;;3.80;99.90;;;;;;4998549;28;20055;-77
2024/01/29 02:52:10;;;;;;;499.60;466.48;;;3.90;99.90;;;;;;5004273;28;20458;-77
2024/01/29 02:54:36;;;;;;;493.70;460.70;;;3.80;99.90;;;;;;5004450;28;20086;-77
2024/01/29 02:57:02;;;;;;;576.63;535.15;;;3.90;99.90;;;;;;5003667;28;20073;-78
2024/01/29 02:59:27;;;;;;;441.88;413.75;;;3.90;99.90;;;;;;4992337;28;20619;-78
2024/01/29 03:01:54;;;;;;;499.55;466.48;;;3.80;99.90;;;;;;4988757;28;20046;-78
2024/01/29 03:04:20;;;;;;;456.63;427.00;;;3.90;99.90;;;;;;5004050;28;20129;-77
2024/01/29 03:06:46;;;;;;;452.52;423.67;;;3.80;99.90;;;;;;4995970;28;20240;-78
2024/01/29 03:09:12;;;;;;;467.48;436.98;;;3.80;99.90;;;;;;4991049;28;20037;-78
2024/01/29 03:11:37;;;;;;;476.52;445.90;;;3.80;99.90;;;;;;4993732;28;20427;-77
2024/01/29 03:14:03;;;;;;;450.13;421.60;;;3.70;99.90;;;;;;5004713;28;20046;-78
2024/01/29 03:16:28;;;;;;;449.17;419.92;;;3.80;99.90;;;;;;4992502;28;20436;-78
2024/01/29 03:18:54;;;;;;;487.98;455.05;;;4.00;99.90;;;;;;4987499;28;20042;-77
2024/01/29 03:21:20;;;;;;;435.20;407.85;;;3.70;99.90;;;;;;4985627;28;20053;-77
2024/01/29 03:23:46;;;;;;;522.38;486.83;;;3.70;99.90;;;;;;5002798;28;20046;-77
2024/01/29 03:26:11;;;;;;;517.75;482.13;;;3.70;99.90;;;;;;5005297;28;20050;-77
2024/01/29 03:28:37;;;;;;;481.30;449.33;;;3.90;99.90;;;;;;5003370;28;20038;-77
2024/01/29 03:31:03;;;;;;;443.15;415.05;;;3.80;99.90;;;;;;5005846;28;20058;-78
2024/01/29 03:33:28;;;;;;;448.60;420.15;;;3.80;99.90;;;;;;5003102;28;20516;-78
2024/01/29 03:35:54;;;;;;;427.75;400.70;;;3.80;99.90;;;;;;5004382;28;20066;-78
2024/01/29 03:38:20;;;;;;;516.55;482.25;;;4.10;99.90;;;;;;5004701;28;20054;-78
2024/01/29 03:40:46;;;;;;;423.77;397.13;;;3.60;99.90;;;;;;5003760;28;20053;-77
2024/01/29 03:43:12;;;;;;;505.27;471.88;;;3.60;99.90;;;;;;5001977;28;20042;-78
2024/01/29 03:45:37;;;;;;;460.05;430.20;;;3.90;99.90;;;;;;5004751;28;20102;-77
2024/01/29 03:48:04;;;;;;;454.83;425.55;;;3.40;99.90;;;;;;5002838;28;20041;-77
2024/01/29 03:50:29;;;;;;;455.63;426.33;;;3.40;99.90;;;;;;5003487;28;20057;-78
2024/01/29 03:52:55;;;;;;;470.27;439.85;;;3.30;99.90;;;;;;5002812;28;20041;-77
2024/01/29 03:55:21;;;;;;;533.85;497.02;;;3.40;99.90;;;;;;5005506;28;20044;-77
2024/01/29 03:57:47;;;;;;;520.28;484.83;;;3.20;99.90;;;;;;5001999;28;20512;-77
2024/01/29 04:00:15;;;;;;;547.03;509.77;;;3.20;99.90;;;;;;5005447;28;20050;-78
2024/01/29 04:02:42;;;;;;;492.55;459.70;;;3.10;99.90;;;;;;5003752;28;20148;-77
2024/01/29 04:05:09;;;;;;;491.63;459.23;;;3.10;99.90;;;;;;5004250;28;20054;-77
2024/01/29 04:07:35;;;;;;;531.38;494.98;;;3.00;99.90;;;;;;5004306;28;20058;-77
2024/01/29 04:10:01;;;;;;;494.95;462.38;;;3.00;99.90;;;;;;5005644;28;20072;-78
2024/01/29 04:12:26;;;;;;;586.60;545.45;;;3.40;99.90;;;;;;5003707;28;20121;-78
2024/01/29 04:14:52;;;;;;;565.40;525.90;;;3.00;99.90;;;;;;5004127;28;20507;-77
2024/01/29 04:17:18;;;;;;;496.80;463.90;;;3.00;99.90;;;;;;5003769;28;20107;-77
2024/01/29 04:19:44;;;;;;;503.23;470.13;;;3.00;99.90;;;;;;5003669;28;20442;-77
2024/01/29 04:22:09;;;;;;;514.38;480.13;;;3.40;99.90;;;;;;5004795;28;20042;-77
2024/01/29 04:24:36;;;;;;;528.70;493.10;;;3.00;99.90;;;;;;5003870;28;20482;-77
2024/01/29 04:27:01;;;;;;;567.22;527.90;;;3.20;99.90;;;;;;5002012;28;20089;-77
2024/01/29 04:29:27;;;;;;;619.65;574.92;;;2.90;99.90;;;;;;5005028;28;20578;-77
2024/01/29 04:31:53;;;;;;;572.05;532.55;;;3.90;99.90;;;;;;5035771;28;20923;-77
2024/01/29 04:34:18;;;;;;;530.13;494.50;;;2.90;99.90;;;;;;5002441;28;20053;-77
2024/01/29 04:36:45;;;;;;;549.65;511.58;;;3.10;99.90;;;;;;5003819;28;20044;-77
2024/01/29 04:39:10;;;;;;;596.35;554.50;;;3.40;99.90;;;;;;5004368;28;20423;-77
2024/01/29 04:41:36;;;;;;;551.33;513.75;;;2.80;99.90;;;;;;4999811;28;20056;-77
2024/01/29 04:44:02;;;;;;;687.33;636.80;;;2.80;99.90;;;;;;5002864;28;20147;-77
2024/01/29 04:46:28;;;;;;;621.10;576.00;;;2.90;99.90;;;;;;5000270;28;20050;-77
2024/01/29 04:48:54;;;;;;;643.85;596.95;;;2.90;99.90;;;;;;4985413;28;20111;-77
2024/01/29 04:51:20;;;;;;;661.03;612.30;;;2.90;99.90;;;;;;4997896;28;20145;-77
2024/01/29 04:53:46;;;;;;;729.92;675.70;;;3.00;99.90;;;;;;5002052;28;20675;-77
2024/01/29 04:56:12;;;;;;;634.08;588.58;;;3.10;99.90;;;;;;4999126;28;20133;-77
2024/01/29 04:58:38;;;;;;;605.25;562.15;;;3.00;99.90;;;;;;4992533;28;20054;-77
2024/01/29 05:01:04;;;;;;;651.15;604.03;;;3.10;99.90;;;;;;4998174;28;20054;-77
2024/01/29 05:03:30;;;;;;;564.88;525.38;;;3.20;99.90;;;;;;4994920;28;20042;-77
2024/01/29 05:05:56;;;;;;;672.60;623.78;;;3.20;99.90;;;;;;4985656;28;20046;-77
2024/01/29 05:08:22;;;;;;;659.92;612.60;;;3.40;99.90;;;;;;4984310;28;20046;-77
2024/01/29 05:10:48;;;;;;;569.30;529.58;;;3.80;99.90;;;;;;4985440;28;20054;-77
2024/01/29 05:13:15;;;;;;;572.00;532.38;;;3.20;99.90;;;;;;4983826;28;20047;-77
2024/01/29 05:15:41;;;;;;;664.30;615.75;;;3.40;99.90;;;;;;4985655;28;20046;-77
2024/01/29 05:18:07;;;;;;;644.35;597.60;;;3.20;99.90;;;;;;4984488;28;20069;-77
2024/01/29 05:20:33;;;;;;;567.70;528.47;;;3.20;99.90;;;;;;4985173;28;20049;-77
2024/01/29 05:22:58;;;;;;;565.47;525.92;;;3.40;99.90;;;;;;4985092;28;20050;-77
2024/01/29 05:25:24;;;;;;;570.20;530.42;;;3.30;99.90;;;;;;5017799;28;20494;-77
2024/01/29 05:27:50;;;;;;;604.38;561.13;;;3.20;99.90;;;;;;4987653;28;20045;-77
2024/01/29 05:30:16;;;;;;;649.08;602.38;;;3.20;99.90;;;;;;4995408;28;20058;-77
2024/01/29 05:32:42;;;;;;;618.88;574.50;;;3.20;99.90;;;;;;4989533;28;20061;-77
2024/01/29 05:35:09;;;;;;;601.80;559.08;;;3.20;99.90;;;;;;4986142;28;20054;-77
2024/01/29 05:37:35;;;;;;;626.60;582.05;;;3.20;99.90;;;;;;4984858;28;20046;-77
2024/01/29 05:40:01;;;;;;;700.97;647.88;;;3.30;99.90;;;;;;4989108;28;20050;-77
2024/01/29 05:42:27;;;;;;;570.95;531.38;;;3.30;99.90;;;;;;4973502;28;20045;-77
2024/01/29 05:44:52;;;;;;;578.53;537.63;;;3.50;99.90;;;;;;4987595;28;20054;-77
2024/01/29 05:47:18;;;;;;;582.10;540.78;;;3.30;99.90;;;;;;4984511;28;20062;-77
2024/01/29 05:49:44;;;;;;;614.15;570.08;;;3.30;99.90;;;;;;4986385;28;20054;-77
2024/01/29 05:52:10;;;;;;;547.97;510.67;;;3.70;99.90;;;;;;4983543;28;20134;-77
2024/01/29 05:54:36;;;;;;;637.67;592.22;;;3.30;99.90;;;;;;4987107;28;20133;-77
2024/01/29 05:57:02;;;;;;;543.17;506.63;;;3.80;99.90;;;;;;4984387;28;20078;-77
2024/01/29 05:59:27;;;;;;;537.28;500.08;;;3.30;99.90;;;;;;4984832;28;20058;-77
2024/01/29 06:01:53;;;;;;;621.28;576.00;;;3.30;99.90;;;;;;5002642;28;20066;-77
2024/01/29 06:04:19;;;;;;;550.35;512.65;;;3.30;99.90;;;;;;5001836;28;20569;-78
2024/01/29 06:06:44;;;;;;;582.05;540.75;;;3.70;99.90;;;;;;5003304;28;20073;-77
2024/01/29 06:09:10;;;;;;;582.15;540.70;;;3.30;99.90;;;;;;4990892;28;20152;-77
2024/01/29 06:11:36;;;;;;;551.15;512.20;;;3.30;99.90;;;;;;4995927;28;20096;-77
2024/01/29 06:14:03;;;;;;;638.97;592.40;;;3.30;99.90;;;;;;4986201;28;20077;-77
2024/01/29 06:16:29;;;;;;;544.92;507.67;;;3.30;99.90;;;;;;4987784;28;20114;-77
2024/01/29 06:18:55;;;;;;;595.40;553.55;;;3.40;99.90;;;;;;4985916;28;20061;-77
2024/01/29 06:21:22;;;;;;;536.65;500.10;;;3.40;99.90;;;;;;4986931;28;20035;-77
2024/01/29 06:23:48;;;;;;;626.72;581.42;;;3.40;99.90;;;;;;5000269;28;20440;-78
2024/01/29 06:26:14;;;;;;;560.08;521.28;;;3.30;99.90;;;;;;4987388;28;20042;-77
2024/01/29 06:28:42;;;;;;;582.20;541.75;;;3.30;99.90;;;;;;4985301;28;20133;-77
2024/01/29 06:31:07;;;;;;;650.53;601.65;;;3.80;99.90;;;;;;4995032;28;20097;-77
2024/01/29 06:33:35;;;;;;;604.90;561.25;;;3.60;99.90;;;;;;5005203;28;20482;-77
2024/01/29 06:36:02;;;;;;;611.40;567.28;;;3.70;99.90;;;;;;5007464;28;20061;-78
2024/01/29 06:38:28;;;;;;;702.42;650.17;;;3.30;99.90;;;;;;5005030;28;20054;-77
2024/01/29 06:40:54;;;;;;;602.05;559.30;;;3.30;99.90;;;;;;4996299;28;20058;-77
2024/01/29 06:43:19;;;;;;;566.35;527.22;;;3.30;99.90;;;;;;4983451;28;20054;-77
2024/01/29 06:45:45;;;;;;;601.13;558.58;;;3.40;99.90;;;;;;5006633;28;20040;-77
2024/01/29 06:48:11;;;;;;;541.13;503.98;;;3.40;99.90;;;;;;5004108;28;20174;-77
2024/01/29 06:50:39;;;;;;;544.47;507.45;;;3.40;99.90;;;;;;5005896;28;20549;-77
2024/01/29 06:53:05;;;;;;;518.85;484.17;;;3.30;99.90;;;;;;4990227;28;20104;-77
2024/01/29 06:55:31;;;;;;;593.70;551.45;;;3.40;99.90;;;;;;5018575;28;20050;-77
2024/01/29 06:57:57;;;;;;;592.88;550.90;;;3.30;99.90;;;;;;4984972;28;20404;-78
2024/01/29 07:00:22;;;;;;;632.65;587.10;;;3.40;99.90;;;;;;4987703;28;20113;-78
2024/01/29 07:02:48;;;;;;;538.58;501.20;;;3.30;99.90;;;;;;4985369;28;20046;-77
2024/01/29 07:05:15;;;;;;;600.55;557.80;;;3.50;99.90;;;;;;4987622;28;20042;-77
2024/01/29 07:07:41;;;;;;;591.88;550.05;;;3.30;99.90;;;;;;5002894;28;20046;-78
2024/01/29 07:10:07;;;;;;;541.70;504.42;;;3.30;99.90;;;;;;5006164;28;20056;-78
2024/01/29 07:12:33;;;;;;;600.70;557.83;;;3.30;99.90;;;;;;5003126;28;20068;-78
2024/01/29 07:14:59;;;;;;;557.80;519.35;;;3.30;99.90;;;;;;5005081;28;20272;-78
2024/01/29 07:17:24;;;;;;;556.55;518.40;;;3.30;99.90;;;;;;5004609;28;20041;-78
2024/01/29 07:19:52;;;;;;;581.13;540.15;;;3.30;99.90;;;;;;4991663;28;20050;-77
2024/01/29 07:22:19;;;;;;;543.92;506.65;;;3.70;99.90;;;;;;4972539;28;20150;-78
2024/01/29 07:24:46;;;;;;;555.58;517.65;;;3.20;99.90;;;;;;4981214;28;20447;-78
2024/01/29 07:27:12;;;;;;;535.33;498.83;;;3.20;99.90;;;;;;4980574;28;20103;-77
2024/01/29 07:29:37;;;;;;;566.92;527.22;;;3.40;99.90;;;;;;4986692;28;20398;-78
2024/01/29 07:32:04;;;;;;;557.28;519.35;;;3.20;99.90;;;;;;4989128;28;20053;-77
2024/01/29 07:34:29;;;;;;;619.97;575.40;;;3.20;99.90;;;;;;4986454;28;20057;-77
2024/01/29 07:36:55;;;;;;;628.53;582.78;;;3.40;99.90;;;;;;4988588;28;20042;-77
2024/01/29 07:39:21;;;;;;;651.58;604.13;;;3.20;99.90;;;;;;4985592;28;20482;-78
2024/01/29 07:41:47;;;;;;;579.90;539.20;;;3.60;99.90;;;;;;4986675;28;20099;-78
2024/01/29 07:44:13;;;;;;;557.17;518.60;;;3.20;99.90;;;;;;4984379;28;20045;-78
2024/01/29 07:46:38;;;;;;;615.85;571.17;;;3.30;99.90;;;;;;4984764;28;20085;-78
2024/01/29 07:49:06;;;;;;;568.95;528.60;;;3.30;99.90;;;;;;4984881;28;20062;-78
2024/01/29 07:51:32;;;;;;;596.92;553.80;;;3.30;99.90;;;;;;4984129;28;20501;-78
2024/01/29 07:53:59;;;;;;;613.55;569.30;;;3.30;99.90;;;;;;4986706;28;20054;-78
2024/01/29 07:56:24;;;;;;;580.28;539.42;;;3.40;99.90;;;;;;4987514;28;20104;-78
2024/01/29 07:58:50;;;;;;;572.45;531.95;;;3.40;99.90;;;;;;4984355;28;20046;-78
2024/01/29 08:01:16;;;;;;;578.83;537.80;;;3.80;99.90;;;;;;5000308;28;20584;-78
2024/01/29 08:03:43;;;;;;;611.58;567.60;;;3.40;99.90;;;;;;5002179;28;20045;-78
2024/01/29 08:06:09;;;;;;;610.50;566.72;;;3.40;99.90;;;;;;5000391;28;20055;-78
2024/01/29 08:08:36;;;;;;;608.95;565.08;;;3.50;99.90;;;;;;5001623;28;20056;-78
2024/01/29 08:11:03;;;;;;;599.85;557.47;;;3.50;99.90;;;;;;5000482;28;20517;-78
2024/01/29 08:13:29;;;;;;;553.70;515.25;;;3.60;99.90;;;;;;5000180;28;20108;-79
2024/01/29 08:15:55;;;;;;;570.70;531.00;;;3.60;99.90;;;;;;4998659;28;20501;-78
2024/01/29 08:18:21;;;;;;;598.17;555.53;;;3.60;99.90;;;;;;5001445;28;20099;-79
2024/01/29 08:20:47;;;;;;;597.45;555.50;;;3.60;99.90;;;;;;5001106;28;20459;-78
2024/01/29 08:23:12;;;;;;;601.90;559.65;;;4.30;99.90;;;;;;4998696;28;20061;-79
2024/01/29 08:25:38;;;;;;;603.05;559.53;;;3.70;99.90;;;;;;4974850;28;20055;-79
2024/01/29 08:28:04;;;;;;;583.38;542.72;;;3.80;99.90;;;;;;4977293;28;20095;-79
2024/01/29 08:30:30;;;;;;;562.45;523.88;;;3.80;99.90;;;;;;4985935;28;20462;-77
2024/01/29 08:32:56;;;;;;;605.88;562.78;;;3.90;99.90;;;;;;4984242;28;20134;-77
2024/01/29 08:35:22;;;;;;;588.88;547.10;;;4.20;99.90;;;;;;5003657;28;20124;-77
2024/01/29 08:37:47;;;;;;;584.28;543.50;;;4.00;99.90;;;;;;5001674;28;20482;-77
2024/01/29 08:40:13;;;;;;;546.22;507.88;;;4.10;99.90;;;;;;5003292;28;20041;-77
2024/01/29 08:42:39;;;;;;;577.53;537.30;;;4.20;99.90;;;;;;5002744;28;20046;-77
2024/01/29 08:45:05;;;;;;;582.30;541.38;;;4.20;99.90;;;;;;5001334;28;20053;-77
2024/01/29 08:47:31;;;;;;;561.65;522.33;;;4.20;99.90;;;;;;4995234;28;20081;-78
2024/01/29 08:49:57;;;;;;;568.88;529.38;;;4.30;99.90;;;;;;4976983;28;20055;-77
2024/01/29 08:52:23;;;;;;;564.60;524.67;;;4.30;99.90;;;;;;5007319;28;20062;-77
2024/01/29 08:54:49;;;;;;;553.50;514.92;;;4.30;99.90;;;;;;4982641;28;20053;-76
2024/01/29 08:57:15;;;;;;;589.75;547.80;;;4.40;99.90;;;;;;4976640;28;20039;-77
2024/01/29 08:59:41;;;;;;;566.60;526.83;;;4.50;99.90;;;;;;4990184;28;20038;-77
2024/01/29 09:02:08;;;;;;;590.58;547.67;;;4.40;99.90;;;;;;4981779;28;20050;-77
2024/01/29 09:04:34;;;;;;;601.88;559.05;;;4.50;99.90;;;;;;4986651;28;20042;-77
2024/01/29 09:06:59;;;;;;;583.22;541.17;;;4.50;99.90;;;;;;4986644;28;20049;-77
2024/01/29 09:09:25;;;;;;;587.72;545.97;;;4.50;99.90;;;;;;4994138;28;20109;-77
2024/01/29 09:11:51;;;;;;;539.80;502.55;;;4.60;99.90;;;;;;5001133;28;20150;-77
2024/01/29 09:14:19;;;;;;;532.17;495.25;;;4.60;99.90;;;;;;4986370;28;20457;-77
2024/01/29 09:16:45;;;;;;;580.60;539.38;;;4.70;99.90;;;;;;4984796;28;20069;-77
2024/01/29 09:19:12;;;;;;;547.20;509.38;;;4.70;99.90;;;;;;5002352;28;20466;-77
2024/01/29 09:21:38;;;;;;;544.15;506.48;;;4.70;99.90;;;;;;4985642;28;20047;-77
2024/01/29 09:24:04;;;;;;;586.35;544.55;;;4.80;99.90;;;;;;4986972;28;20371;-77
2024/01/29 09:26:30;;;;;;;542.22;504.73;;;4.80;99.90;;;;;;4983824;28;20058;-77
2024/01/29 09:28:56;;;;;;;592.47;550.42;;;4.80;99.90;;;;;;4987121;28;20566;-77
2024/01/29 09:31:22;;;;;;;547.15;509.42;;;4.90;99.90;;;;;;4989339;28;20050;-77
2024/01/29 09:33:49;;;;;;;535.97;498.55;;;4.90;99.90;;;;;;4992953;28;20077;-77
2024/01/29 09:36:15;;;;;;;584.72;543.05;;;5.00;99.90;;;;;;4989211;28;20485;-77
2024/01/29 09:38:40;;;;;;;596.60;554.35;;;5.00;99.90;;;;;;4990297;28;20054;-77
2024/01/29 09:41:06;;;;;;;538.22;500.83;;;5.00;99.90;;;;;;5021659;28;20042;-77
2024/01/29 09:43:34;;;;;;;595.75;552.80;;;5.00;99.90;;;;;;4981764;28;20042;-77
2024/01/29 09:46:03;;;;;;;549.08;510.95;;;5.10;99.90;;;;;;4992018;28;20133;-77
2024/01/29 09:48:30;;;;;;;594.83;552.30;;;5.20;99.90;;;;;;4995968;28;20046;-77
2024/01/29 09:50:58;;;;;;;603.70;560.05;;;5.20;99.90;;;;;;4993129;28;20054;-77
2024/01/29 09:53:24;;;;;;;573.05;532.75;;;5.30;99.90;;;;;;4996376;28;20140;-77
2024/01/29 09:55:50;;;;;;;606.50;562.65;;;5.30;99.90;;;;;;4991942;28;20086;-77
2024/01/29 09:58:16;;;;;;;553.03;514.40;;;5.40;99.90;;;;;;4992202;28;20509;-77
2024/01/29 10:00:42;;;;;;;594.03;551.22;;;5.40;99.90;;;;;;4986469;28;20393;-77
2024/01/29 10:03:15;;;;;;;554.05;515.65;;;5.40;99.90;;;;;;5036650;28;20479;-76
2024/01/29 10:05:42;;;;;;;589.13;546.67;;;5.40;99.90;;;;;;5004768;28;20054;-76
2024/01/29 10:08:09;;;;;;;558.67;519.20;;;5.40;99.90;;;;;;4973865;28;20043;-76
2024/01/29 10:10:35;;;;;;;631.83;585.97;;;5.50;99.90;;;;;;4969965;28;20150;-76
2024/01/29 10:13:07;;;;;;;590.65;548.63;;;5.50;99.90;;;;;;4986758;28;20457;-77
2024/01/29 10:15:33;;;;;;;560.90;521.30;;;5.60;99.90;;;;;;4980431;28;20153;-77
2024/01/29 10:17:59;;;;;;;546.70;508.58;;;5.60;99.90;;;;;;4987230;28;20101;-77
2024/01/29 10:20:25;;;;;;;603.83;560.28;;;5.70;99.90;;;;;;4999251;28;20053;-77
2024/01/29 10:22:59;;;;;;;567.92;527.90;;;5.70;99.90;;;;;;4988516;28;20050;-76
2024/01/29 10:25:25;;;;;;;568.60;528.70;;;5.90;99.90;;;;;;5006433;28;20128;-76
2024/01/29 10:27:51;;;;;;;571.20;530.88;;;5.90;99.90;;;;;;4996995;28;20057;-77
2024/01/29 10:30:17;;;;;;;592.00;549.78;;;6.20;99.90;;;;;;4987784;28;20038;-77
2024/01/29 10:32:42;;;;;;;652.92;604.58;;;6.20;99.90;;;;;;5004412;28;20320;-77
2024/01/29 10:35:08;;;;;;;596.20;552.75;;;6.30;99.90;;;;;;4999819;28;20077;-77
2024/01/29 10:37:34;;;;;;;646.50;599.25;;;6.40;99.90;;;;;;4977356;28;20035;-77
2024/01/29 10:40:06;;;;;;;628.90;582.72;;;6.50;99.90;;;;;;4993957;28;20049;-77
2024/01/29 10:42:34;;;;;;;635.97;589.58;;;6.60;99.90;;;;;;4990241;28;20034;-77
2024/01/29 10:45:00;;;;;;;618.00;573.47;;;6.80;99.90;;;;;;4995081;28;20061;-77
2024/01/29 10:47:31;;;;;;;613.33;569.20;;;6.90;99.90;;;;;;4989031;28;20364;-77
2024/01/29 10:49:58;;;;;;;613.65;569.15;;;7.10;99.90;;;;;;4990876;28;20051;-76
2024/01/29 10:52:26;;;;;;;611.22;566.58;;;7.10;99.90;;;;;;5001026;28;20053;-76
2024/01/29 10:54:55;;;;;;;579.85;538.63;;;7.10;99.90;;;;;;5020546;28;20054;-77
2024/01/29 10:57:21;;;;;;;580.22;538.83;;;7.10;99.90;;;;;;4998399;28;20045;-77
2024/01/29 10:59:48;;;;;;;621.35;575.78;;;7.10;99.90;;;;;;4992421;28;20046;-78
2024/01/29 11:02:14;;;;;;;605.53;561.53;;;7.20;99.90;;;;;;5004388;28;20428;-77
2024/01/29 11:04:40;;;;;;;654.65;606.70;;;7.20;99.90;;;;;;5006197;28;20077;-77
2024/01/29 11:07:15;;;;;;;609.38;564.90;;;7.30;99.90;;;;;;4996313;28;20458;-77
2024/01/29 11:09:50;;;;;;;606.35;562.42;;;7.30;99.90;;;;;;4992497;28;20065;-77
2024/01/29 11:12:17;;;;;;;640.25;593.80;;;7.30;99.90;;;;;;4989156;28;20125;-77
2024/01/29 11:14:47;;;;;;;630.10;584.35;;;7.30;99.90;;;;;;4993736;28;20102;-77
2024/01/29 11:17:14;;;;;;;635.92;589.35;;;7.30;99.90;;;;;;4989560;28;20443;-77
2024/01/29 11:19:42;;;;;;;624.50;579.42;;;7.40;99.90;;;;;;4987316;28;20051;-77
2024/01/29 11:22:09;;;;;;;607.75;563.85;;;7.40;99.90;;;;;;4984499;28;20055;-77
2024/01/29 11:24:35;;;;;;;625.72;579.75;;;7.40;99.90;;;;;;4985487;28;20458;-78
2024/01/29 11:27:08;;;;;;;627.15;581.08;;;7.40;99.90;;;;;;4984815;28;20125;-77
2024/01/29 11:29:36;;;;;;;685.05;634.33;;;7.40;99.90;;;;;;4986501;28;20037;-77
2024/01/29 11:32:02;;;;;;;639.47;592.45;;;7.50;99.90;;;;;;4986472;28;20050;-77
2024/01/29 11:34:28;;;;;;;634.22;588.20;;;7.50;99.90;;;;;;4985430;28;20069;-77
2024/01/29 11:36:54;;;;;;;638.85;592.35;;;7.50;99.90;;;;;;4986443;28;20050;-76
2024/01/29 11:39:24;;;;;;;662.45;613.83;;;7.50;99.90;;;;;;4985423;28;20050;-77
2024/01/29 11:41:50;;;;;;;671.67;621.95;;;7.50;99.90;;;;;;4986089;28;20936;-77
2024/01/29 11:44:18;;;;;;;650.28;602.55;;;7.50;99.90;;;;;;4984437;28;20043;-77
2024/01/29 11:46:44;;;;;;;677.50;627.53;;;7.50;99.90;;;;;;4985191;28;20038;-77
2024/01/29 11:49:09;;;;;;;664.65;615.67;;;7.60;99.90;;;;;;4985175;28;20528;-77
2024/01/29 11:51:37;;;;;;;706.33;653.72;;;7.60;99.90;;;;;;4984864;28;20042;-77
2024/01/29 11:54:03;;;;;;;681.67;630.83;;;7.60;99.90;;;;;;4985899;28;20043;-77
2024/01/29 11:56:29;;;;;;;693.92;642.33;;;7.60;99.90;;;;;;4986755;28;20119;-77
2024/01/29 11:59:00;;;;;;;696.20;644.58;;;7.70;99.90;;;;;;4985339;28;20430;-77
2024/01/29 12:01:26;;;;;;;667.38;618.42;;;7.80;99.90;;;;;;4984635;28;20104;-77
2024/01/29 12:03:52;;;;;;;705.60;653.47;;;7.90;99.90;;;;;;5016786;28;20053;-76
2024/01/29 12:06:18;;;;;;;695.78;643.75;;;7.90;99.90;;;;;;4986038;28;20111;-77
2024/01/29 12:08:47;;;;;;;656.67;608.22;;;8.00;99.90;;;;;;4984976;28;20418;-77
2024/01/29 12:11:15;;;;;;;671.35;621.08;;;8.10;99.90;;;;;;4984343;28;20055;-77
2024/01/29 12:13:41;;;;;;;671.63;621.83;;;8.10;99.90;;;;;;4984193;28;20058;-77